Time;durP1;ratioP1;P1;durP2;ratioP2;P2;SDS_P1;SDS_P2;PMS_P1;PMS_P2;Temp;Humidity;BMP_temperature;BMP_pressure;BME280_temperature;BME280_humidity;BME280_pressure;Samples;Min_cycle;Max_cycle;Signal;HPM_P1;HPM_P2
2023/01/02 00:01:38;;;;;;;6.87;6.40;;;15.40;21.40;;;;;;5113980;27;20211;-58
2023/01/02 00:04:04;;;;;;;6.73;6.37;;;15.40;21.20;;;;;;5114590;27;20187;-58
2023/01/02 00:06:34;;;;;;;7.47;7.17;;;15.40;21.30;;;;;;5114457;27;20514;-57
2023/01/02 00:09:00;;;;;;;6.63;6.33;;;15.50;21.70;;;;;;5114390;27;20644;-57
2023/01/02 00:11:26;;;;;;;7.33;7.03;;;15.50;21.10;;;;;;5114529;27;20777;-58
2023/01/02 00:13:52;;;;;;;6.80;6.50;;;15.50;21.10;;;;;;5113266;27;20419;-58
2023/01/02 00:16:18;;;;;;;7.00;6.70;;;15.50;21.00;;;;;;5114460;27;20414;-58
2023/01/02 00:18:44;;;;;;;6.53;6.27;;;15.50;20.90;;;;;;5095423;28;20185;-58
2023/01/02 00:21:09;;;;;;;6.50;6.30;;;15.50;20.80;;;;;;5093687;28;20266;-58
2023/01/02 00:23:35;;;;;;;7.40;6.90;;;15.50;20.80;;;;;;5077302;28;20182;-58
2023/01/02 00:26:01;;;;;;;7.40;6.90;;;15.50;21.00;;;;;;5093428;28;20174;-58
2023/01/02 00:28:27;;;;;;;6.70;6.20;;;15.60;20.90;;;;;;5093560;28;20495;-58
2023/01/02 00:30:52;;;;;;;6.13;5.83;;;15.50;20.80;;;;;;5093032;28;20206;-57
2023/01/02 00:33:18;;;;;;;6.80;6.60;;;15.60;20.90;;;;;;5093894;28;20419;-57
2023/01/02 00:35:43;;;;;;;6.90;6.60;;;15.60;20.60;;;;;;5093185;28;20654;-58
2023/01/02 00:38:09;;;;;;;6.50;6.30;;;15.60;20.40;;;;;;5092885;28;20217;-58
2023/01/02 00:40:35;;;;;;;6.87;6.57;;;15.60;20.30;;;;;;5093401;28;20177;-58
2023/01/02 00:43:01;;;;;;;6.37;6.17;;;15.60;20.40;;;;;;5093273;28;20182;-58
2023/01/02 00:45:26;;;;;;;6.57;6.30;;;15.60;20.50;;;;;;5093465;28;20269;-57
2023/01/02 00:47:52;;;;;;;7.00;6.63;;;15.60;20.50;;;;;;5092439;28;20523;-58
2023/01/02 00:50:18;;;;;;;6.70;6.40;;;15.60;20.70;;;;;;5092794;28;20207;-58
2023/01/02 00:52:44;;;;;;;7.30;7.00;;;15.60;21.60;;;;;;5093522;28;20174;-58
2023/01/02 00:55:09;;;;;;;6.77;6.10;;;15.50;21.50;;;;;;5092901;28;20653;-58
2023/01/02 00:57:35;;;;;;;7.87;7.07;;;15.60;21.90;;;;;;5092789;28;20166;-58
2023/01/02 01:00:01;;;;;;;8.20;7.80;;;15.50;22.00;;;;;;5092264;28;20199;-58
2023/01/02 01:02:26;;;;;;;7.13;6.83;;;15.50;22.10;;;;;;5092850;28;20173;-58
2023/01/02 01:04:52;;;;;;;7.67;7.30;;;15.50;22.10;;;;;;5092673;28;20181;-58
2023/01/02 01:07:18;;;;;;;7.17;6.87;;;15.50;22.30;;;;;;5092632;28;20306;-59
2023/01/02 01:09:43;;;;;;;6.77;6.47;;;15.50;22.30;;;;;;5092223;28;20212;-59
2023/01/02 01:12:09;;;;;;;7.67;7.27;;;15.50;22.40;;;;;;5092426;28;20551;-59
2023/01/02 01:14:35;;;;;;;8.13;7.73;;;15.50;22.50;;;;;;5092063;28;20246;-59
2023/01/02 01:17:00;;;;;;;7.47;7.07;;;15.40;22.50;;;;;;5092383;28;20629;-59
2023/01/02 01:19:33;;;;;;;7.77;7.47;;;15.40;22.50;;;;;;5091970;28;20177;-59
2023/01/02 01:21:59;;;;;;;7.33;6.93;;;15.40;22.70;;;;;;5092256;28;20352;-59
2023/01/02 01:24:26;;;;;;;7.00;6.80;;;15.40;22.50;;;;;;5092331;28;20443;-57
2023/01/02 01:26:51;;;;;;;7.10;6.70;;;15.40;22.30;;;;;;5092724;28;20190;-58
2023/01/02 01:29:18;;;;;;;7.30;7.00;;;15.40;22.30;;;;;;5092154;28;20510;-58
2023/01/02 01:31:43;;;;;;;7.43;7.13;;;15.40;22.40;;;;;;5091802;28;20223;-57
2023/01/02 01:34:12;;;;;;;7.07;6.77;;;15.40;22.80;;;;;;5111163;28;20810;-58
2023/01/02 01:36:38;;;;;;;7.87;7.50;;;15.30;23.30;;;;;;5092230;28;20207;-58
2023/01/02 01:39:04;;;;;;;6.77;6.57;;;15.30;23.10;;;;;;5092040;28;20443;-58
2023/01/02 01:41:30;;;;;;;7.23;6.93;;;15.30;23.00;;;;;;5091997;28;20688;-58
2023/01/02 01:43:58;;;;;;;7.47;7.00;;;15.30;23.30;;;;;;5091616;28;20834;-58
2023/01/02 01:46:38;;;;;;;7.83;7.53;;;15.30;23.80;;;;;;5091030;28;20170;-59
2023/01/02 01:49:26;;;;;;;9.10;8.60;;;15.20;23.90;;;;;;5091762;28;20455;-59
2023/01/02 01:51:57;;;;;;;9.03;8.43;;;15.20;23.80;;;;;;5091710;28;20432;-59
2023/01/02 01:54:32;;;;;;;8.57;8.17;;;15.10;23.90;;;;;;5091415;28;20814;-59
2023/01/02 01:57:13;;;;;;;9.20;8.80;;;15.10;23.80;;;;;;5091712;28;20460;-59
2023/01/02 01:59:39;;;;;;;8.20;7.80;;;15.00;23.60;;;;;;5092075;28;20438;-59
2023/01/02 02:02:05;;;;;;;8.67;8.27;;;15.00;24.20;;;;;;5095506;28;20495;-59
2023/01/02 02:04:31;;;;;;;8.43;7.93;;;14.90;24.50;;;;;;5095731;28;20408;-59
2023/01/02 02:06:56;;;;;;;9.33;8.90;;;15.00;24.60;;;;;;5095417;28;20434;-59
2023/01/02 02:09:29;;;;;;;10.63;9.00;;;14.90;24.10;;;;;;5095248;28;20532;-58
2023/01/02 02:11:55;;;;;;;9.43;8.83;;;14.90;24.60;;;;;;5095542;28;20170;-59
2023/01/02 02:14:21;;;;;;;9.37;8.97;;;14.90;24.20;;;;;;5095346;28;20411;-59
2023/01/02 02:16:56;;;;;;;9.87;9.07;;;14.90;24.40;;;;;;5095532;28;20269;-59
2023/01/02 02:19:44;;;;;;;9.30;8.90;;;14.80;24.50;;;;;;5095045;28;20411;-59
2023/01/02 02:22:53;;;;;;;8.93;8.53;;;14.80;24.40;;;;;;5094990;28;20540;-59
2023/01/02 02:25:34;;;;;;;8.40;8.10;;;14.80;24.70;;;;;;5082084;28;20423;-59
2023/01/02 02:28:22;;;;;;;8.80;8.40;;;14.70;24.80;;;;;;5095464;28;20425;-59
2023/01/02 02:30:54;;;;;;;8.87;8.27;;;14.60;25.30;;;;;;5095419;28;20866;-59
2023/01/02 02:33:34;;;;;;;8.83;8.50;;;14.60;25.10;;;;;;5095342;28;20415;-59
2023/01/02 02:36:18;;;;;;;9.10;8.50;;;14.60;25.10;;;;;;5095377;28;20469;-59
2023/01/02 02:39:02;;;;;;;9.60;9.20;;;14.70;25.30;;;;;;5094800;28;20890;-58
2023/01/02 02:41:44;;;;;;;10.03;9.53;;;14.60;25.00;;;;;;5094522;28;20415;-58
2023/01/02 02:44:18;;;;;;;10.07;9.37;;;14.50;25.50;;;;;;5093829;28;20439;-58
2023/01/02 02:47:00;;;;;;;9.77;9.27;;;14.50;25.20;;;;;;5094926;28;20415;-58
2023/01/02 02:49:40;;;;;;;10.20;9.60;;;14.50;25.30;;;;;;5094235;28;20542;-58
2023/01/02 02:52:24;;;;;;;10.10;9.57;;;14.40;25.80;;;;;;5094841;28;20411;-58
2023/01/02 02:55:02;;;;;;;10.67;9.87;;;14.50;26.20;;;;;;5094189;28;20760;-57
2023/01/02 02:57:30;;;;;;;9.50;9.00;;;14.50;26.10;;;;;;5094673;28;20414;-58
2023/01/02 02:59:55;;;;;;;10.10;9.40;;;14.50;25.40;;;;;;5094522;28;20456;-58
2023/01/02 03:02:21;;;;;;;9.63;9.23;;;14.50;25.80;;;;;;5094070;28;21074;-58
2023/01/02 03:04:51;;;;;;;10.80;10.30;;;14.50;26.20;;;;;;5093892;28;20205;-58
2023/01/02 03:07:36;;;;;;;8.97;8.57;;;14.50;26.20;;;;;;5094335;28;20227;-58
2023/01/02 03:10:01;;;;;;;8.57;8.27;;;14.50;25.70;;;;;;5093380;28;20459;-57
2023/01/02 03:13:13;;;;;;;8.43;8.03;;;14.50;23.70;;;;;;5093600;28;20778;-58
2023/01/02 03:15:50;;;;;;;7.90;7.50;;;14.60;23.10;;;;;;4993154;28;20186;-58
2023/01/02 03:18:37;;;;;;;8.00;7.70;;;14.70;22.90;;;;;;4993073;28;20419;-58
2023/01/02 03:21:09;;;;;;;7.80;7.50;;;14.80;22.40;;;;;;5062536;28;20424;-58
2023/01/02 03:23:43;;;;;;;8.57;8.00;;;14.80;22.40;;;;;;5093399;28;20420;-58
2023/01/02 03:26:11;;;;;;;8.00;7.53;;;14.90;22.00;;;;;;5093874;28;20408;-57
2023/01/02 03:28:40;;;;;;;7.57;7.30;;;14.90;21.90;;;;;;5093119;28;20504;-57
2023/01/02 03:31:10;;;;;;;7.87;7.50;;;15.00;21.50;;;;;;5094224;28;20434;-58
2023/01/02 03:33:41;;;;;;;7.90;7.60;;;15.10;21.30;;;;;;5094312;28;20412;-57
2023/01/02 03:36:14;;;;;;;8.53;8.20;;;15.10;21.20;;;;;;5093330;28;20495;-57
2023/01/02 03:39:04;;;;;;;7.50;7.30;;;15.00;21.30;;;;;;5092855;28;20424;-57
2023/01/02 03:41:41;;;;;;;8.17;7.87;;;15.10;21.20;;;;;;5093516;28;20781;-57
2023/01/02 03:44:10;;;;;;;8.17;7.87;;;15.10;20.90;;;;;;5093237;28;20442;-58
2023/01/02 03:47:03;;;;;;;8.33;8.03;;;15.10;21.00;;;;;;5093421;28;20922;-58
2023/01/02 03:49:33;;;;;;;8.00;7.70;;;15.10;21.00;;;;;;5093492;28;20456;-58
2023/01/02 03:51:59;;;;;;;8.73;8.33;;;15.10;21.20;;;;;;5092797;28;20423;-58
2023/01/02 03:54:27;;;;;;;8.60;8.30;;;15.10;20.90;;;;;;5092919;28;20451;-58
2023/01/02 03:57:17;;;;;;;8.30;7.90;;;15.10;21.00;;;;;;5092380;28;20407;-58
2023/01/02 03:59:51;;;;;;;8.73;8.27;;;15.10;20.90;;;;;;5092374;28;20840;-57
2023/01/02 04:02:50;;;;;;;7.90;7.50;;;15.10;21.10;;;;;;5092672;28;20547;-57
2023/01/02 04:05:36;;;;;;;8.00;7.70;;;15.10;20.80;;;;;;5092836;28;20419;-57
2023/01/02 04:08:12;;;;;;;8.60;8.20;;;15.10;20.90;;;;;;5092726;28;20416;-58
2023/01/02 04:10:39;;;;;;;9.03;8.53;;;15.10;20.70;;;;;;5092854;28;20447;-57
2023/01/02 04:13:18;;;;;;;8.30;8.00;;;15.10;21.20;;;;;;5092803;28;20472;-57
2023/01/02 04:15:47;;;;;;;10.10;8.93;;;15.10;21.10;;;;;;5092544;28;20431;-57
2023/01/02 04:18:22;;;;;;;8.13;7.93;;;15.00;21.10;;;;;;5092659;28;20920;-58
2023/01/02 04:20:52;;;;;;;8.00;7.70;;;15.00;21.10;;;;;;5092560;28;20418;-58
2023/01/02 04:23:40;;;;;;;8.40;8.00;;;15.10;21.10;;;;;;5091839;28;20412;-58
2023/01/02 04:26:15;;;;;;;8.37;8.07;;;15.00;21.10;;;;;;5092431;28;20766;-58
2023/01/02 04:28:41;;;;;;;8.70;8.40;;;15.00;21.20;;;;;;5092658;28;20459;-58
2023/01/02 04:31:12;;;;;;;8.30;7.80;;;15.00;21.30;;;;;;5092452;28;20800;-58
2023/01/02 04:33:46;;;;;;;9.10;8.70;;;15.00;21.50;;;;;;5092093;28;20567;-58
2023/01/02 04:36:14;;;;;;;8.80;8.10;;;15.00;21.60;;;;;;5093044;28;20407;-58
2023/01/02 04:38:44;;;;;;;8.10;7.80;;;14.90;21.30;;;;;;5092672;28;20427;-58
2023/01/02 04:41:13;;;;;;;7.77;7.57;;;14.90;21.20;;;;;;5110650;28;20412;-58
2023/01/02 04:43:39;;;;;;;8.40;8.00;;;15.00;21.30;;;;;;5091441;28;20440;-58
2023/01/02 04:46:05;;;;;;;8.23;7.83;;;14.90;21.20;;;;;;5092287;28;20498;-58
2023/01/02 04:48:30;;;;;;;8.80;7.90;;;14.90;21.40;;;;;;5092914;28;20202;-58
2023/01/02 04:50:56;;;;;;;7.87;7.60;;;14.90;21.10;;;;;;5092354;28;20601;-58
2023/01/02 04:53:22;;;;;;;8.23;7.60;;;14.90;21.00;;;;;;5092596;28;20205;-58
2023/01/02 04:55:47;;;;;;;8.20;7.80;;;15.00;20.80;;;;;;5092327;28;20188;-58
2023/01/02 04:58:13;;;;;;;7.30;6.90;;;15.00;21.00;;;;;;5089912;28;20631;-58
2023/01/02 05:00:39;;;;;;;8.10;7.70;;;15.00;20.80;;;;;;5089616;28;20231;-58
2023/01/02 05:03:05;;;;;;;8.00;7.57;;;15.00;21.00;;;;;;5107111;28;20416;-58
2023/01/02 05:05:30;;;;;;;9.07;8.67;;;15.00;20.90;;;;;;5092686;28;20565;-59
2023/01/02 05:07:59;;;;;;;8.30;8.00;;;15.00;21.00;;;;;;5092584;28;20174;-58
2023/01/02 05:10:25;;;;;;;8.57;8.13;;;15.00;20.80;;;;;;5093226;28;20224;-58
2023/01/02 05:12:50;;;;;;;9.00;8.60;;;15.00;20.80;;;;;;5092808;28;20447;-58
2023/01/02 05:15:16;;;;;;;8.70;8.30;;;15.00;20.90;;;;;;5112082;28;20193;-58
2023/01/02 05:17:42;;;;;;;8.63;8.30;;;15.00;20.60;;;;;;5093320;28;20520;-58
2023/01/02 05:20:12;;;;;;;7.60;7.40;;;15.00;20.10;;;;;;5112262;28;20170;-58
2023/01/02 05:25:27;;;;;;;7.80;7.50;;;15.10;19.10;;;;;;5111811;28;20810;-59
2023/01/02 05:27:54;;;;;;;8.70;8.30;;;15.20;18.40;;;;;;5093877;28;20422;-59
2023/01/02 05:30:20;;;;;;;8.30;7.90;;;15.20;18.40;;;;;;5093912;28;20898;-59
2023/01/02 05:32:46;;;;;;;8.60;8.30;;;15.30;18.50;;;;;;5093636;28;20952;-59
2023/01/02 05:35:12;;;;;;;8.80;8.50;;;15.30;18.50;;;;;;5112517;28;20408;-59
2023/01/02 05:37:37;;;;;;;7.87;7.67;;;15.30;18.40;;;;;;5094133;28;20230;-58
2023/01/02 05:40:03;;;;;;;8.10;7.80;;;15.40;18.30;;;;;;5094280;28;20272;-57
2023/01/02 05:42:29;;;;;;;8.40;7.97;;;15.40;17.80;;;;;;5094303;28;20685;-58
2023/01/02 05:44:55;;;;;;;8.53;8.03;;;15.40;18.00;;;;;;5093909;28;20542;-59
2023/01/02 05:47:20;;;;;;;8.70;8.10;;;15.50;17.70;;;;;;5093865;28;20178;-59
2023/01/02 05:49:46;;;;;;;7.63;7.33;;;15.40;17.80;;;;;;5112403;28;20282;-58
2023/01/02 05:52:11;;;;;;;8.50;8.10;;;15.40;18.00;;;;;;5093721;28;20235;-58
2023/01/02 05:54:37;;;;;;;8.23;7.90;;;15.40;17.80;;;;;;5093686;28;20173;-58
2023/01/02 05:57:03;;;;;;;8.30;8.00;;;15.50;17.90;;;;;;5094205;28;20174;-58
2023/01/02 05:59:28;;;;;;;8.00;7.60;;;15.40;18.40;;;;;;5093889;28;20197;-56
2023/01/02 06:01:54;;;;;;;8.33;7.93;;;15.30;18.90;;;;;;5093929;28;20189;-58
2023/01/02 06:04:20;;;;;;;8.20;7.70;;;15.40;18.50;;;;;;5093782;28;20178;-59
2023/01/02 06:06:46;;;;;;;7.73;7.53;;;15.30;18.50;;;;;;5094290;28;20929;-59
2023/01/02 06:09:13;;;;;;;8.73;8.10;;;15.30;18.40;;;;;;5094179;28;20210;-59
2023/01/02 06:11:39;;;;;;;8.50;8.00;;;15.30;18.30;;;;;;5112075;28;20408;-59
2023/01/02 06:14:05;;;;;;;8.40;8.10;;;15.30;18.10;;;;;;5094101;28;20828;-59
2023/01/02 06:16:30;;;;;;;9.90;9.30;;;15.30;18.00;;;;;;5093865;28;20441;-59
2023/01/02 06:18:56;;;;;;;8.80;8.50;;;15.40;18.10;;;;;;5094078;28;20178;-59
2023/01/02 06:21:22;;;;;;;8.30;8.00;;;15.30;18.30;;;;;;5093616;28;20181;-59
2023/01/02 06:23:53;;;;;;;9.43;9.03;;;15.30;18.50;;;;;;5097479;28;20489;-59
2023/01/02 06:26:20;;;;;;;9.80;9.20;;;15.30;18.50;;;;;;5091348;28;20743;-59
2023/01/02 06:28:49;;;;;;;9.67;8.83;;;15.20;18.40;;;;;;5093984;28;20462;-59
2023/01/02 06:31:16;;;;;;;8.70;8.40;;;15.20;18.40;;;;;;5093531;28;20419;-59
2023/01/02 06:33:43;;;;;;;8.27;7.97;;;15.10;18.40;;;;;;5093803;28;20494;-59
2023/01/02 06:36:11;;;;;;;9.10;8.80;;;15.20;18.40;;;;;;5093997;28;20404;-59
2023/01/02 06:38:36;;;;;;;10.10;9.17;;;15.20;18.30;;;;;;5093991;28;20420;-59
2023/01/02 06:41:03;;;;;;;8.83;8.20;;;15.20;18.30;;;;;;5093776;28;20774;-59
2023/01/02 06:43:30;;;;;;;9.67;9.17;;;15.10;18.20;;;;;;5093242;28;20190;-59
2023/01/02 06:45:57;;;;;;;8.30;7.90;;;15.20;18.20;;;;;;5093869;28;20411;-59
2023/01/02 06:48:23;;;;;;;8.80;8.40;;;15.20;18.30;;;;;;5097425;28;20462;-59
2023/01/02 06:50:49;;;;;;;9.60;9.00;;;15.10;18.40;;;;;;5097023;28;20420;-59
2023/01/02 06:53:15;;;;;;;8.70;8.40;;;15.20;18.40;;;;;;5115821;28;20465;-59
2023/01/02 06:55:53;;;;;;;8.93;8.53;;;15.10;18.40;;;;;;5097395;28;20205;-59
2023/01/02 06:58:20;;;;;;;9.30;8.70;;;15.10;18.40;;;;;;5097414;28;20174;-59
2023/01/02 07:00:46;;;;;;;9.30;9.00;;;15.10;18.30;;;;;;5096786;28;20952;-59
2023/01/02 07:03:12;;;;;;;8.77;8.37;;;15.10;18.30;;;;;;5090739;28;20435;-58
2023/01/02 07:05:38;;;;;;;8.77;8.37;;;15.10;18.40;;;;;;5096338;28;20464;-59
2023/01/02 07:08:03;;;;;;;8.23;7.83;;;15.10;18.40;;;;;;5096322;28;20173;-56
2023/01/02 07:10:29;;;;;;;7.90;7.60;;;15.10;18.40;;;;;;5086721;28;20191;-58
2023/01/02 07:12:55;;;;;;;8.23;7.83;;;15.10;18.20;;;;;;5091243;27;20205;-58
2023/01/02 07:15:20;;;;;;;8.53;8.10;;;15.10;18.30;;;;;;5105818;27;20182;-58
2023/01/02 07:17:46;;;;;;;8.50;7.80;;;15.10;17.80;;;;;;5105663;27;20189;-58
2023/01/02 07:20:11;;;;;;;8.87;8.43;;;15.10;17.70;;;;;;5113279;27;20195;-58
2023/01/02 07:22:37;;;;;;;8.27;7.90;;;15.20;17.60;;;;;;5104665;28;20269;-58
2023/01/02 07:25:03;;;;;;;8.83;8.40;;;15.20;17.70;;;;;;5110012;27;20296;-57
2023/01/02 07:27:29;;;;;;;9.57;8.80;;;15.20;17.40;;;;;;5100055;28;20202;-57
2023/01/02 07:29:55;;;;;;;8.73;8.23;;;15.20;17.40;;;;;;5103203;28;20467;-57
2023/01/02 07:32:21;;;;;;;9.07;8.60;;;15.30;17.60;;;;;;5110554;27;20526;-57
2023/01/02 07:34:46;;;;;;;9.07;8.67;;;15.30;18.20;;;;;;5104625;28;20261;-57
2023/01/02 07:37:12;;;;;;;9.13;8.73;;;15.30;18.50;;;;;;5109890;27;20234;-57
2023/01/02 07:39:38;;;;;;;8.60;8.10;;;15.30;18.50;;;;;;5106384;27;20579;-57
2023/01/02 07:42:03;;;;;;;8.00;7.70;;;15.30;18.50;;;;;;5107741;27;20174;-57
2023/01/02 07:44:29;;;;;;;8.80;8.00;;;15.30;18.50;;;;;;5104008;28;20194;-57
2023/01/02 07:46:55;;;;;;;9.07;8.60;;;15.40;18.60;;;;;;5103904;28;20189;-58
2023/01/02 07:49:20;;;;;;;9.20;8.50;;;15.40;18.60;;;;;;5099326;27;20214;-58
2023/01/02 07:51:46;;;;;;;8.97;8.30;;;15.40;18.60;;;;;;5118923;27;20541;-57
2023/01/02 07:54:11;;;;;;;9.33;8.83;;;15.40;18.60;;;;;;5105287;27;20209;-58
2023/01/02 07:56:37;;;;;;;9.40;8.80;;;15.40;18.50;;;;;;5109151;28;20231;-59
2023/01/02 07:59:03;;;;;;;9.57;8.97;;;15.40;18.60;;;;;;5094380;28;20231;-59
2023/01/02 08:01:29;;;;;;;9.00;8.60;;;15.40;18.60;;;;;;5107919;28;20912;-58
2023/01/02 08:03:55;;;;;;;9.13;8.30;;;15.40;18.60;;;;;;5128799;27;20181;-58
2023/01/02 08:06:20;;;;;;;9.90;8.90;;;15.30;18.50;;;;;;5104833;27;20430;-59
2023/01/02 08:08:46;;;;;;;8.70;8.30;;;15.10;18.30;;;;;;5101682;27;20253;-59
2023/01/02 08:11:18;;;;;;;8.53;8.13;;;15.10;18.40;;;;;;5092732;28;20198;-60
2023/01/02 08:13:44;;;;;;;9.40;8.87;;;15.10;18.40;;;;;;5101036;27;20415;-58
2023/01/02 08:16:12;;;;;;;9.70;8.93;;;15.10;19.20;;;;;;5098545;27;20527;-58
2023/01/02 08:18:38;;;;;;;7.97;7.60;;;15.10;17.80;;;;;;5106910;27;20996;-58
2023/01/02 08:21:04;;;;;;;8.97;8.47;;;15.10;17.70;;;;;;5104332;27;20418;-58
2023/01/02 08:23:31;;;;;;;7.97;7.77;;;15.10;17.40;;;;;;5111252;28;20408;-58
2023/01/02 08:26:08;;;;;;;8.57;7.90;;;15.10;17.60;;;;;;5103000;28;20420;-58
2023/01/02 08:28:35;;;;;;;8.20;7.90;;;15.10;17.70;;;;;;5096684;28;20461;-58
2023/01/02 08:31:00;;;;;;;8.40;8.00;;;15.10;18.40;;;;;;5103429;28;20422;-58
2023/01/02 08:33:27;;;;;;;8.47;8.07;;;15.10;17.50;;;;;;5108722;27;20416;-59
2023/01/02 08:35:52;;;;;;;8.60;8.10;;;15.20;18.40;;;;;;5109241;27;20177;-58
2023/01/02 08:38:18;;;;;;;8.27;7.87;;;15.20;18.70;;;;;;5104610;27;20952;-58
2023/01/02 08:40:44;;;;;;;8.10;7.70;;;15.20;18.00;;;;;;5106738;27;20569;-59
2023/01/02 08:43:09;;;;;;;8.03;7.63;;;15.20;17.90;;;;;;5109158;27;20183;-58
2023/01/02 08:45:35;;;;;;;9.03;8.60;;;15.20;17.00;;;;;;5106348;27;20218;-59
2023/01/02 08:48:01;;;;;;;10.73;10.03;;;15.20;17.70;;;;;;5105169;27;20230;-58
2023/01/02 08:50:27;;;;;;;8.60;8.00;;;15.20;17.50;;;;;;5102735;28;20297;-58
2023/01/02 08:52:52;;;;;;;7.73;7.33;;;15.30;17.10;;;;;;5100661;27;20413;-58
2023/01/02 08:55:18;;;;;;;9.53;8.60;;;15.20;16.50;;;;;;5104963;28;20182;-58
2023/01/02 08:57:44;;;;;;;8.63;7.93;;;15.20;16.70;;;;;;5108310;28;20174;-58
2023/01/02 09:00:10;;;;;;;8.80;8.30;;;15.20;16.60;;;;;;5103716;28;20182;-59
2023/01/02 09:02:36;;;;;;;8.57;8.07;;;15.30;16.90;;;;;;5108254;28;20178;-60
2023/01/02 09:05:01;;;;;;;8.20;7.80;;;15.20;16.30;;;;;;5102753;28;20427;-60
2023/01/02 09:07:27;;;;;;;8.97;8.47;;;15.20;16.50;;;;;;5108190;28;20218;-61
2023/01/02 09:09:53;;;;;;;7.60;7.30;;;15.30;16.80;;;;;;5108151;28;20388;-60
2023/01/02 09:12:19;;;;;;;7.97;7.67;;;15.20;16.50;;;;;;5085354;28;20427;-61
2023/01/02 09:14:44;;;;;;;7.53;7.33;;;15.30;16.50;;;;;;5083311;28;20606;-61
2023/01/02 09:17:10;;;;;;;8.90;8.07;;;15.30;18.10;;;;;;5097744;27;20422;-61
2023/01/02 09:19:36;;;;;;;7.27;6.97;;;15.40;16.40;;;;;;5105039;27;20178;-59
2023/01/02 09:22:03;;;;;;;7.37;6.73;;;15.40;17.40;;;;;;5105481;27;20583;-60
2023/01/02 09:24:28;;;;;;;7.83;7.43;;;15.40;17.40;;;;;;5094193;27;20181;-59
2023/01/02 09:26:54;;;;;;;7.60;7.30;;;15.50;17.70;;;;;;5105743;27;20421;-60
2023/01/02 09:29:19;;;;;;;7.90;7.50;;;15.40;14.80;;;;;;5120479;27;20254;-61
2023/01/02 09:31:45;;;;;;;8.90;7.60;;;15.40;15.00;;;;;;5099482;27;20211;-61
2023/01/02 09:34:11;;;;;;;8.03;7.40;;;15.40;15.00;;;;;;5103596;28;20644;-61
2023/01/02 09:36:37;;;;;;;7.57;6.87;;;15.50;15.00;;;;;;5108524;28;20311;-60
2023/01/02 09:39:04;;;;;;;7.53;6.90;;;15.50;14.60;;;;;;5102455;28;20519;-60
2023/01/02 09:41:42;;;;;;;7.70;7.17;;;15.50;14.80;;;;;;5107921;28;20193;-59
2023/01/02 09:44:35;;;;;;;7.90;7.20;;;15.60;14.70;;;;;;5110272;28;20860;-59
2023/01/02 09:47:19;;;;;;;13.73;9.90;;;15.60;14.40;;;;;;5102438;28;20803;-59
2023/01/02 09:49:46;;;;;;;6.93;6.13;;;15.60;14.60;;;;;;5097434;28;20467;-59
2023/01/02 09:52:26;;;;;;;7.03;5.93;;;15.60;14.70;;;;;;5103267;28;20941;-60
2023/01/02 09:54:52;;;;;;;7.07;6.10;;;15.60;14.90;;;;;;5104426;28;20797;-60
2023/01/02 09:57:27;;;;;;;7.17;6.57;;;15.60;14.90;;;;;;5109989;28;20586;-60
2023/01/02 10:00:08;;;;;;;6.63;6.30;;;15.60;15.00;;;;;;5101590;28;20934;-60
2023/01/02 10:03:10;;;;;;;8.07;7.30;;;15.60;14.90;;;;;;5096609;28;20420;-61
2023/01/02 10:06:04;;;;;;;7.27;6.97;;;15.60;15.00;;;;;;5095058;28;20422;-59
2023/01/02 10:08:30;;;;;;;6.87;6.60;;;15.60;15.10;;;;;;5090586;28;20466;-58
2023/01/02 10:11:04;;;;;;;9.70;8.90;;;15.60;15.50;;;;;;5104455;28;20915;-60
2023/01/02 10:13:44;;;;;;;7.50;7.00;;;15.70;15.60;;;;;;5095122;28;20180;-59
2023/01/02 10:16:16;;;;;;;7.70;7.30;;;15.70;16.00;;;;;;5102695;28;20415;-59
2023/01/02 10:18:46;;;;;;;7.63;7.33;;;15.70;16.50;;;;;;5105313;28;20425;-59
2023/01/02 10:21:21;;;;;;;7.60;7.17;;;15.70;16.40;;;;;;5103388;27;20944;-60
2023/01/02 10:24:09;;;;;;;7.23;6.83;;;15.70;14.80;;;;;;5111176;28;20423;-60
2023/01/02 10:26:40;;;;;;;6.97;6.67;;;15.80;14.80;;;;;;5095567;27;20414;-60
2023/01/02 10:29:19;;;;;;;7.47;7.00;;;15.80;15.00;;;;;;5100215;27;20460;-59
2023/01/02 10:31:51;;;;;;;7.20;6.80;;;15.80;14.30;;;;;;5102704;27;20800;-60
2023/01/02 10:34:19;;;;;;;7.53;7.20;;;15.90;14.60;;;;;;5108482;27;20410;-59
2023/01/02 10:36:46;;;;;;;6.87;6.57;;;15.90;14.60;;;;;;5108716;27;20926;-59
2023/01/02 10:39:21;;;;;;;7.43;7.10;;;15.90;14.60;;;;;;5100599;27;20553;-59
2023/01/02 10:41:50;;;;;;;7.33;6.97;;;15.90;14.20;;;;;;5108573;27;20418;-58
2023/01/02 10:44:32;;;;;;;7.80;7.10;;;15.90;14.80;;;;;;5105565;27;20440;-58
2023/01/02 10:47:09;;;;;;;7.50;7.10;;;16.00;14.70;;;;;;5108461;27;20474;-59
2023/01/02 10:49:36;;;;;;;7.33;6.77;;;16.00;14.70;;;;;;5097233;27;20482;-59
2023/01/02 10:52:26;;;;;;;7.47;6.80;;;16.00;14.20;;;;;;5106015;27;20754;-58
2023/01/02 10:54:54;;;;;;;7.30;6.87;;;16.00;13.90;;;;;;5100756;27;20435;-58
2023/01/02 10:57:30;;;;;;;6.83;6.23;;;16.10;14.10;;;;;;5107608;27;20465;-59
2023/01/02 11:00:00;;;;;;;7.57;7.00;;;16.10;14.80;;;;;;5107806;27;20424;-59
2023/01/02 11:02:28;;;;;;;7.23;6.93;;;16.20;15.50;;;;;;5107877;27;20438;-59
2023/01/02 11:04:57;;;;;;;10.33;7.53;;;16.20;14.90;;;;;;5106728;27;20832;-59
2023/01/02 11:07:24;;;;;;;6.50;6.20;;;16.20;14.30;;;;;;5107483;27;20931;-58
2023/01/02 11:09:55;;;;;;;9.63;7.00;;;16.20;13.90;;;;;;5108735;28;20803;-60
2023/01/02 11:12:21;;;;;;;9.33;8.50;;;16.30;13.80;;;;;;5106825;27;20511;-60
2023/01/02 11:14:47;;;;;;;8.47;7.87;;;16.30;14.20;;;;;;5108241;28;20869;-59
2023/01/02 11:17:16;;;;;;;8.10;7.50;;;16.30;13.80;;;;;;5105384;27;20199;-60
2023/01/02 11:19:45;;;;;;;9.00;8.10;;;16.40;13.50;;;;;;5107529;27;20177;-60
2023/01/02 11:22:13;;;;;;;7.63;7.20;;;16.50;13.60;;;;;;5106993;27;20427;-60
2023/01/02 11:25:04;;;;;;;8.27;7.67;;;16.50;13.60;;;;;;5107987;27;20415;-60
2023/01/02 11:27:36;;;;;;;8.67;8.17;;;16.60;13.30;;;;;;5105053;27;20463;-60
2023/01/02 11:30:05;;;;;;;8.97;8.30;;;16.70;12.90;;;;;;5108048;27;20871;-60
2023/01/02 11:32:40;;;;;;;8.53;8.13;;;16.80;13.20;;;;;;5123390;27;20410;-60
2023/01/02 11:35:28;;;;;;;9.63;9.03;;;16.80;13.00;;;;;;5107634;27;20414;-60
2023/01/02 11:37:54;;;;;;;7.77;7.47;;;16.80;12.80;;;;;;5108326;27;20898;-60
2023/01/02 11:40:29;;;;;;;7.90;7.53;;;16.80;12.60;;;;;;5106389;27;20420;-60
2023/01/02 11:45:45;;;;;;;8.87;8.37;;;16.90;12.30;;;;;;5120029;27;20965;-60
2023/01/02 11:48:20;;;;;;;7.80;7.40;;;17.00;12.80;;;;;;5101826;27;20407;-60
2023/01/02 11:50:47;;;;;;;8.50;8.13;;;17.00;12.30;;;;;;5103831;28;20416;-61
2023/01/02 11:53:13;;;;;;;7.77;7.27;;;17.00;12.60;;;;;;5109611;27;20463;-60
2023/01/02 11:55:48;;;;;;;8.00;7.60;;;17.00;12.50;;;;;;5108275;27;20418;-60
2023/01/02 11:58:33;;;;;;;10.20;8.30;;;17.00;12.10;;;;;;5106032;27;20418;-60
2023/01/02 12:01:27;;;;;;;7.67;7.23;;;16.90;12.50;;;;;;5109116;27;20520;-60
2023/01/02 12:03:54;;;;;;;7.47;6.97;;;16.90;12.60;;;;;;5098730;28;20813;-60
2023/01/02 12:06:23;;;;;;;8.13;7.50;;;17.00;12.70;;;;;;5109039;27;20411;-60
2023/01/02 12:09:18;;;;;;;8.37;7.57;;;16.90;13.10;;;;;;5108849;27;20469;-60
2023/01/02 12:12:06;;;;;;;7.40;6.97;;;16.90;13.10;;;;;;5089535;28;20476;-60
2023/01/02 12:14:46;;;;;;;7.93;7.40;;;16.90;13.30;;;;;;5095798;27;20408;-60
2023/01/02 12:17:34;;;;;;;8.10;7.50;;;16.90;14.00;;;;;;5102323;27;20465;-60
2023/01/02 12:20:06;;;;;;;8.00;7.30;;;16.90;13.70;;;;;;5108865;27;20812;-59
2023/01/02 12:22:52;;;;;;;7.63;7.33;;;16.90;14.00;;;;;;5104194;27;20960;-60
2023/01/02 12:25:36;;;;;;;7.80;7.40;;;16.80;13.50;;;;;;5104883;27;20429;-59
2023/01/02 12:28:11;;;;;;;8.10;7.30;;;16.80;13.70;;;;;;5106158;27;20489;-58
2023/01/02 12:30:55;;;;;;;7.23;6.90;;;16.80;13.80;;;;;;5100185;28;21032;-58
2023/01/02 12:33:35;;;;;;;10.40;7.07;;;16.80;14.20;;;;;;5102859;28;20529;-59
2023/01/02 12:36:20;;;;;;;7.63;7.07;;;16.80;13.40;;;;;;5103177;28;20408;-59
2023/01/02 12:39:20;;;;;;;8.60;6.80;;;16.80;14.00;;;;;;5115946;27;20477;-59
2023/01/02 12:42:04;;;;;;;7.53;7.10;;;16.90;14.00;;;;;;5095839;27;20427;-59
2023/01/02 12:44:53;;;;;;;7.40;6.80;;;16.80;14.40;;;;;;5092779;27;20458;-59
2023/01/02 12:47:31;;;;;;;9.20;8.27;;;16.80;14.20;;;;;;5102561;27;20424;-60
2023/01/02 12:49:59;;;;;;;8.30;7.70;;;16.80;14.30;;;;;;5096176;28;20466;-60
2023/01/02 12:52:50;;;;;;;9.10;7.70;;;16.80;14.30;;;;;;5099266;27;20883;-60
2023/01/02 12:56:01;;;;;;;7.80;7.43;;;16.90;14.20;;;;;;5103771;27;20922;-60
2023/01/02 12:58:43;;;;;;;8.17;7.77;;;16.90;14.70;;;;;;5051019;27;20402;-60
2023/01/02 13:01:34;;;;;;;8.47;8.07;;;16.90;15.00;;;;;;5103140;27;20477;-60
2023/01/02 13:04:22;;;;;;;8.30;7.57;;;16.90;14.30;;;;;;5106491;28;20419;-60
2023/01/02 13:07:07;;;;;;;9.53;8.20;;;16.90;14.10;;;;;;5096604;27;20793;-60
2023/01/02 13:09:38;;;;;;;8.30;7.80;;;16.90;14.20;;;;;;5094112;27;20992;-60
2023/01/02 13:12:13;;;;;;;7.53;6.83;;;16.90;14.40;;;;;;5103221;28;20499;-60